AirNav   Everest Fuels
 
 811 users online  

05NC Dead Cow Field Airport
Beaufort, North Carolina, USA

GOING TO BEAUFORT?


FAA INFORMATION EFFECTIVE 03 NOVEMBER 2022

Location

FAA Identifier: 05NC
Lat/Long: 34-45-34.0000N 076-38-41.0000W
34-45.566667N 076-38.683333W
34.7594444,-76.6447222
(estimated)
Elevation: 11 ft. / 3 m (estimated)
From city: 3 miles NNE of BEAUFORT, NC
Time zone: UTC -5 (UTC -4 during Daylight Saving Time)
Zip code: 28516

Airport Operations

Airport use: Private use. Permission required prior to landing
Activation date: 02/2013
Control tower: no
ARTCC: WASHINGTON CENTER
FSS: RALEIGH FLIGHT SERVICE STATION
Attendance: UNATNDD
Wind indicator: yes
Segmented circle: no

Airport Communications

WX ASOS at MRH (1.7 nm SW): 135.375 (252-728-2055)

Nearby radio navigation aids

VOR radial/distance  VOR name  Freq  Var
EWNr142/27.2NEW BERN VOR/DME113.6008W

Airport Services

Runway Information

Runway 9/27

Dimensions: 1400 x 120 ft. / 427 x 37 m
Surface: turf, in good condition
RUNWAY 9  RUNWAY 27
Traffic pattern: leftleft

Airport Ownership and Management from official FAA records

Ownership: Privately-owned
Owner: CRAIG CANNON
HWY 101, DEAD COW LANE
BEAUFORT, NC 28516
Phone 252-241-0394
Manager: CRAIG CANNON
HWY 101, DEAD COW LANE
BEAUFORT, NC 28516
Phone 252-241-0394

Airport Operational Statistics

Aircraft based on the field: 1
Single engine airplanes: 1
    

Additional Remarks

FOR CD CTC WASHINGTON ARTCC AT 703-771-3587.

Instrument Procedures

There are no published instrument procedures at 05NC.

Some nearby airports with instrument procedures:

KMRH - Michael J Smith Field Airport (2 nm SW)
KNKT - Cherry Point Marine Corps Air Station (Cunningham Field) Airport (14 nm NW)
KEWN - Coastal Carolina Regional Airport (27 nm NW)
W95 - Ocracoke Island Airport (39 nm NE)
KNCA - New River Marine Corps Air Station (McCutcheon Field) Airport (39 nm W)
 
Loc | Ops | Rwys | IFR | FBO | Links
Com | Nav | Svcs | Stats | Notes
Aerial photo
No photo
 
Airport distance calculator
Flying to Dead Cow Field Airport? Find the distance to fly.

From to 05NC

Sunrise and sunset
Times for 28-Nov-2022
 Local
(UTC-5)
 Zulu
(UTC)
Morning civil twilight06:2611:26
Sunrise06:5411:54
Sunset16:5521:55
Evening civil twilight17:2322:23

Current date and time
Zulu (UTC)  28-Nov-2022 12:59:16
Local (UTC-5)  28-Nov-2022 07:59:16
 
METAR
KMRH 
2nm S 
281158Z AUTO 25009KT 10SM CLR 14/09 A2984 RMK AO2 SLP104 T01440094 10183 20144 53022
KNKT 
13nm NW 
281156Z 23008KT 10SM CLR 12/08 A2984 RMK AO2 SLP101 70007 T01170083 10178 20117 53021
KNBT 
18nm NE 
281200Z AUTO 23007KT 10SM CLR 16/09 A2982 RMK AO2 SLP103 70002 T01560089 10217 20156 51018
KNJM 
19nm W 
281157Z AUTO 25007KT 10SM CLR 15/09 A2985 RMK AO2 SLP111 70006 T01500089 10200 20150 53021
TAF
KNKT 
13nm NW 
2812/2909 25008KT 9999 SKC QNH2976INS BECMG 2816/2818 27010KT 9999 SCT030 QNH2988INS FM290300 VRB05KT 9999 SKC QNH3007INS T18/2819Z T08/2909Z
NOTAMs
Click for the latest NOTAMs
NOTAMs are issued by the DoD/FAA and will open in a separate window not controlled by AirNav.

 

 
 

Would you like to see your business listed on this page?

 If your business provides an interesting product or service to pilots, flight crews, aircraft, or users of the Dead Cow Field Airport, you should consider listing it here.  To start the listing process, click on the button below
 
Add a business
 

Other Pages about Dead Cow Field Airport

Update a link
 
Copyright © AirNav, LLC. All rights reserved. Privacy Policy  Contact